sensor_id;sensor_type;location;lat;lon;timestamp;temperature;humidity
18291;DHT22;9271;48.590;8.866;2024-03-02T00:00:36;7.60;99.90
18291;DHT22;9271;48.590;8.866;2024-03-02T00:03:04;7.60;99.90
18291;DHT22;9271;48.590;8.866;2024-03-02T00:05:36;7.80;99.90
18291;DHT22;9271;48.590;8.866;2024-03-02T00:08:05;7.80;99.90
18291;DHT22;9271;48.590;8.866;2024-03-02T00:10:37;7.90;99.90
18291;DHT22;9271;48.590;8.866;2024-03-02T00:13:05;7.90;99.90
18291;DHT22;9271;48.590;8.866;2024-03-02T00:15:45;7.90;99.90
18291;DHT22;9271;48.590;8.866;2024-03-02T00:18:13;7.70;99.90
18291;DHT22;9271;48.590;8.866;2024-03-02T00:20:39;7.40;99.90
18291;DHT22;9271;48.590;8.866;2024-03-02T00:23:09;7.50;99.90
18291;DHT22;9271;48.590;8.866;2024-03-02T00:25:39;7.50;99.90
18291;DHT22;9271;48.590;8.866;2024-03-02T00:28:16;7.50;99.90
18291;DHT22;9271;48.590;8.866;2024-03-02T00:30:52;7.60;99.90
18291;DHT22;9271;48.590;8.866;2024-03-02T00:33:20;7.60;99.90
18291;DHT22;9271;48.590;8.866;2024-03-02T00:35:47;7.60;99.90
18291;DHT22;9271;48.590;8.866;2024-03-02T00:38:16;7.50;99.90
18291;DHT22;9271;48.590;8.866;2024-03-02T00:40:43;7.40;99.90
18291;DHT22;9271;48.590;8.866;2024-03-02T00:43:27;7.40;99.90
18291;DHT22;9271;48.590;8.866;2024-03-02T00:45:59;7.00;99.90
18291;DHT22;9271;48.590;8.866;2024-03-02T00:48:25;6.70;99.90
18291;DHT22;9271;48.590;8.866;2024-03-02T00:50:52;6.80;99.90
18291;DHT22;9271;48.590;8.866;2024-03-02T00:53:23;6.50;99.90
18291;DHT22;9271;48.590;8.866;2024-03-02T00:55:50;6.40;99.90
18291;DHT22;9271;48.590;8.866;2024-03-02T00:58:17;6.60;99.90
18291;DHT22;9271;48.590;8.866;2024-03-02T01:00:44;6.40;99.90
18291;DHT22;9271;48.590;8.866;2024-03-02T01:03:12;6.60;99.90
18291;DHT22;9271;48.590;8.866;2024-03-02T01:05:41;6.50;99.90
18291;DHT22;9271;48.590;8.866;2024-03-02T01:08:08;6.60;99.90
18291;DHT22;9271;48.590;8.866;2024-03-02T01:10:36;6.80;99.90
18291;DHT22;9271;48.590;8.866;2024-03-02T01:13:03;6.90;99.90
18291;DHT22;9271;48.590;8.866;2024-03-02T01:15:30;6.90;99.90
18291;DHT22;9271;48.590;8.866;2024-03-02T01:17:58;7.00;99.90
18291;DHT22;9271;48.590;8.866;2024-03-02T01:20:24;7.10;99.90
18291;DHT22;9271;48.590;8.866;2024-03-02T01:22:51;7.10;99.90
18291;DHT22;9271;48.590;8.866;2024-03-02T01:25:18;7.00;99.90
18291;DHT22;9271;48.590;8.866;2024-03-02T01:27:47;7.00;99.90
18291;DHT22;9271;48.590;8.866;2024-03-02T01:30:14;6.90;99.90
18291;DHT22;9271;48.590;8.866;2024-03-02T01:32:40;6.10;99.90
18291;DHT22;9271;48.590;8.866;2024-03-02T01:35:07;5.80;99.90
18291;DHT22;9271;48.590;8.866;2024-03-02T01:37:34;6.00;99.90
18291;DHT22;9271;48.590;8.866;2024-03-02T01:40:01;6.20;99.90
18291;DHT22;9271;48.590;8.866;2024-03-02T01:42:35;6.20;99.90
18291;DHT22;9271;48.590;8.866;2024-03-02T01:45:04;6.20;99.90
18291;DHT22;9271;48.590;8.866;2024-03-02T01:47:30;6.40;99.90
18291;DHT22;9271;48.590;8.866;2024-03-02T01:49:58;6.40;99.90
18291;DHT22;9271;48.590;8.866;2024-03-02T01:52:25;6.40;99.90
18291;DHT22;9271;48.590;8.866;2024-03-02T01:54:51;6.20;99.90
18291;DHT22;9271;48.590;8.866;2024-03-02T01:57:18;5.70;99.90
18291;DHT22;9271;48.590;8.866;2024-03-02T01:59:45;5.10;99.90
18291;DHT22;9271;48.590;8.866;2024-03-02T02:02:14;5.00;99.90
18291;DHT22;9271;48.590;8.866;2024-03-02T02:04:41;5.10;99.90
18291;DHT22;9271;48.590;8.866;2024-03-02T02:07:07;5.30;99.90
18291;DHT22;9271;48.590;8.866;2024-03-02T02:09:34;5.60;99.90
18291;DHT22;9271;48.590;8.866;2024-03-02T02:12:01;5.80;99.90
18291;DHT22;9271;48.590;8.866;2024-03-02T02:14:30;5.80;99.90
18291;DHT22;9271;48.590;8.866;2024-03-02T02:16:56;5.80;99.90
18291;DHT22;9271;48.590;8.866;2024-03-02T02:19:24;5.80;99.90
18291;DHT22;9271;48.590;8.866;2024-03-02T02:21:52;5.80;99.90
18291;DHT22;9271;48.590;8.866;2024-03-02T02:24:19;5.90;99.90
18291;DHT22;9271;48.590;8.866;2024-03-02T02:26:45;5.80;99.90
18291;DHT22;9271;48.590;8.866;2024-03-02T02:29:12;6.00;99.90
18291;DHT22;9271;48.590;8.866;2024-03-02T02:31:39;6.10;99.90
18291;DHT22;9271;48.590;8.866;2024-03-02T02:34:06;6.00;99.90
18291;DHT22;9271;48.590;8.866;2024-03-02T02:36:36;5.80;99.90
18291;DHT22;9271;48.590;8.866;2024-03-02T02:39:06;5.60;99.90
18291;DHT22;9271;48.590;8.866;2024-03-02T02:41:33;5.40;99.90
18291;DHT22;9271;48.590;8.866;2024-03-02T02:44:01;5.30;99.90
18291;DHT22;9271;48.590;8.866;2024-03-02T02:46:28;5.30;99.90
18291;DHT22;9271;48.590;8.866;2024-03-02T02:48:54;5.20;99.90
18291;DHT22;9271;48.590;8.866;2024-03-02T02:51:21;5.30;99.90
18291;DHT22;9271;48.590;8.866;2024-03-02T02:53:47;5.40;99.90
18291;DHT22;9271;48.590;8.866;2024-03-02T02:56:15;5.30;99.90
18291;DHT22;9271;48.590;8.866;2024-03-02T02:58:42;5.10;99.90
18291;DHT22;9271;48.590;8.866;2024-03-02T03:01:09;5.10;99.90
18291;DHT22;9271;48.590;8.866;2024-03-02T03:03:36;5.20;99.90
18291;DHT22;9271;48.590;8.866;2024-03-02T03:06:04;5.30;99.90
18291;DHT22;9271;48.590;8.866;2024-03-02T03:08:30;5.20;99.90
18291;DHT22;9271;48.590;8.866;2024-03-02T03:10:57;5.10;99.90
18291;DHT22;9271;48.590;8.866;2024-03-02T03:13:25;5.20;99.90
18291;DHT22;9271;48.590;8.866;2024-03-02T03:15:52;5.20;99.90
18291;DHT22;9271;48.590;8.866;2024-03-02T03:18:18;5.30;99.90
18291;DHT22;9271;48.590;8.866;2024-03-02T03:20:45;5.30;99.90
18291;DHT22;9271;48.590;8.866;2024-03-02T03:23:11;5.30;99.90
18291;DHT22;9271;48.590;8.866;2024-03-02T03:25:40;5.30;99.90
18291;DHT22;9271;48.590;8.866;2024-03-02T03:28:07;5.20;99.90
18291;DHT22;9271;48.590;8.866;2024-03-02T03:30:36;5.20;99.90
18291;DHT22;9271;48.590;8.866;2024-03-02T03:33:03;5.20;99.90
18291;DHT22;9271;48.590;8.866;2024-03-02T03:35:31;5.20;99.90
18291;DHT22;9271;48.590;8.866;2024-03-02T03:37:58;5.10;99.90
18291;DHT22;9271;48.590;8.866;2024-03-02T03:40:25;5.00;99.90
18291;DHT22;9271;48.590;8.866;2024-03-02T03:42:51;5.10;99.90
18291;DHT22;9271;48.590;8.866;2024-03-02T03:45:18;5.10;99.90
18291;DHT22;9271;48.590;8.866;2024-03-02T03:47:47;5.10;99.90
18291;DHT22;9271;48.590;8.866;2024-03-02T03:50:14;5.00;99.90
18291;DHT22;9271;48.590;8.866;2024-03-02T03:52:40;5.10;99.90
18291;DHT22;9271;48.590;8.866;2024-03-02T03:55:08;5.30;99.90
18291;DHT22;9271;48.590;8.866;2024-03-02T03:57:35;5.30;99.90
18291;DHT22;9271;48.590;8.866;2024-03-02T04:00:03;5.20;99.90
18291;DHT22;9271;48.590;8.866;2024-03-02T04:02:29;4.90;99.90
18291;DHT22;9271;48.590;8.866;2024-03-02T04:04:57;4.70;99.90
18291;DHT22;9271;48.590;8.866;2024-03-02T04:07:24;4.90;99.90
18291;DHT22;9271;48.590;8.866;2024-03-02T04:09:51;4.90;99.90
18291;DHT22;9271;48.590;8.866;2024-03-02T04:12:17;4.80;99.90
18291;DHT22;9271;48.590;8.866;2024-03-02T04:14:44;4.90;99.90
18291;DHT22;9271;48.590;8.866;2024-03-02T04:17:10;4.90;99.90
18291;DHT22;9271;48.590;8.866;2024-03-02T04:19:38;5.00;99.90
18291;DHT22;9271;48.590;8.866;2024-03-02T04:22:06;5.10;99.90
18291;DHT22;9271;48.590;8.866;2024-03-02T04:24:33;5.00;99.90
18291;DHT22;9271;48.590;8.866;2024-03-02T04:26:59;4.90;99.90
18291;DHT22;9271;48.590;8.866;2024-03-02T04:29:26;5.00;99.90
18291;DHT22;9271;48.590;8.866;2024-03-02T04:31:53;5.00;99.90
18291;DHT22;9271;48.590;8.866;2024-03-02T04:34:20;4.90;99.90
18291;DHT22;9271;48.590;8.866;2024-03-02T04:36:47;5.10;99.90
18291;DHT22;9271;48.590;8.866;2024-03-02T04:39:15;5.10;99.90
18291;DHT22;9271;48.590;8.866;2024-03-02T04:41:41;5.10;99.90
18291;DHT22;9271;48.590;8.866;2024-03-02T04:44:08;5.00;99.90
18291;DHT22;9271;48.590;8.866;2024-03-02T04:46:35;5.00;99.90
18291;DHT22;9271;48.590;8.866;2024-03-02T04:49:01;5.10;99.90
18291;DHT22;9271;48.590;8.866;2024-03-02T04:51:28;5.10;99.90
18291;DHT22;9271;48.590;8.866;2024-03-02T04:53:54;5.00;99.90
18291;DHT22;9271;48.590;8.866;2024-03-02T04:56:22;4.90;99.90
18291;DHT22;9271;48.590;8.866;2024-03-02T04:59:06;5.00;99.90
18291;DHT22;9271;48.590;8.866;2024-03-02T05:01:33;5.00;99.90
18291;DHT22;9271;48.590;8.866;2024-03-02T05:04:00;4.70;99.90
18291;DHT22;9271;48.590;8.866;2024-03-02T05:06:26;4.70;99.90
18291;DHT22;9271;48.590;8.866;2024-03-02T05:08:53;4.80;99.90
18291;DHT22;9271;48.590;8.866;2024-03-02T05:11:20;4.80;99.90
18291;DHT22;9271;48.590;8.866;2024-03-02T05:14:12;4.80;99.90
18291;DHT22;9271;48.590;8.866;2024-03-02T05:16:39;5.00;99.90
18291;DHT22;9271;48.590;8.866;2024-03-02T05:19:07;5.10;99.90
18291;DHT22;9271;48.590;8.866;2024-03-02T05:21:34;5.10;99.90
18291;DHT22;9271;48.590;8.866;2024-03-02T05:24:00;4.90;99.90
18291;DHT22;9271;48.590;8.866;2024-03-02T05:26:27;5.00;99.90
18291;DHT22;9271;48.590;8.866;2024-03-02T05:28:54;4.80;99.90
18291;DHT22;9271;48.590;8.866;2024-03-02T05:31:22;4.70;99.90
18291;DHT22;9271;48.590;8.866;2024-03-02T05:33:49;4.70;99.90
18291;DHT22;9271;48.590;8.866;2024-03-02T05:36:15;4.80;99.90
18291;DHT22;9271;48.590;8.866;2024-03-02T05:38:42;4.90;99.90
18291;DHT22;9271;48.590;8.866;2024-03-02T05:41:09;4.90;99.90
18291;DHT22;9271;48.590;8.866;2024-03-02T05:43:35;4.90;99.90
18291;DHT22;9271;48.590;8.866;2024-03-02T05:46:02;5.00;99.90
18291;DHT22;9271;48.590;8.866;2024-03-02T05:48:30;4.80;99.90
18291;DHT22;9271;48.590;8.866;2024-03-02T05:50:57;4.60;99.90
18291;DHT22;9271;48.590;8.866;2024-03-02T05:53:24;4.60;99.90
18291;DHT22;9271;48.590;8.866;2024-03-02T05:55:50;4.80;99.90
18291;DHT22;9271;48.590;8.866;2024-03-02T05:58:20;4.80;99.90
18291;DHT22;9271;48.590;8.866;2024-03-02T06:00:58;4.80;99.90
18291;DHT22;9271;48.590;8.866;2024-03-02T06:03:24;4.80;99.90
18291;DHT22;9271;48.590;8.866;2024-03-02T06:05:52;4.80;99.90
18291;DHT22;9271;48.590;8.866;2024-03-02T06:08:19;4.30;99.90
18291;DHT22;9271;48.590;8.866;2024-03-02T06:10:45;4.00;99.90
18291;DHT22;9271;48.590;8.866;2024-03-02T06:13:12;3.60;99.90
18291;DHT22;9271;48.590;8.866;2024-03-02T06:15:39;3.60;99.90
18291;DHT22;9271;48.590;8.866;2024-03-02T06:18:05;3.70;99.90
18291;DHT22;9271;48.590;8.866;2024-03-02T06:20:33;4.10;99.90
18291;DHT22;9271;48.590;8.866;2024-03-02T06:23:01;4.20;99.90
18291;DHT22;9271;48.590;8.866;2024-03-02T06:25:28;4.30;99.90
18291;DHT22;9271;48.590;8.866;2024-03-02T06:27:55;4.60;99.90
18291;DHT22;9271;48.590;8.866;2024-03-02T06:30:21;4.70;99.90
18291;DHT22;9271;48.590;8.866;2024-03-02T06:32:48;4.70;99.90
18291;DHT22;9271;48.590;8.866;2024-03-02T06:35:14;4.80;99.90
18291;DHT22;9271;48.590;8.866;2024-03-02T06:37:41;4.80;99.90
18291;DHT22;9271;48.590;8.866;2024-03-02T06:40:09;5.00;99.90
18291;DHT22;9271;48.590;8.866;2024-03-02T06:42:36;5.10;99.90
18291;DHT22;9271;48.590;8.866;2024-03-02T06:45:03;5.10;99.90
18291;DHT22;9271;48.590;8.866;2024-03-02T06:47:30;4.90;99.90
18291;DHT22;9271;48.590;8.866;2024-03-02T06:49:56;4.60;99.90
18291;DHT22;9271;48.590;8.866;2024-03-02T06:52:24;4.80;99.90
18291;DHT22;9271;48.590;8.866;2024-03-02T06:54:50;5.10;99.90
18291;DHT22;9271;48.590;8.866;2024-03-02T06:57:18;5.30;99.90
18291;DHT22;9271;48.590;8.866;2024-03-02T06:59:46;5.40;99.90
18291;DHT22;9271;48.590;8.866;2024-03-02T07:02:12;5.60;99.90
18291;DHT22;9271;48.590;8.866;2024-03-02T07:04:39;6.00;99.90
18291;DHT22;9271;48.590;8.866;2024-03-02T07:07:06;6.40;99.90
18291;DHT22;9271;48.590;8.866;2024-03-02T07:09:32;6.50;99.90
18291;DHT22;9271;48.590;8.866;2024-03-02T07:11:59;6.50;99.90
18291;DHT22;9271;48.590;8.866;2024-03-02T07:14:27;6.30;99.90
18291;DHT22;9271;48.590;8.866;2024-03-02T07:17:20;5.90;99.90
18291;DHT22;9271;48.590;8.866;2024-03-02T07:19:47;5.90;99.90
18291;DHT22;9271;48.590;8.866;2024-03-02T07:22:14;6.00;99.90
18291;DHT22;9271;48.590;8.866;2024-03-02T07:24:40;6.30;99.90
18291;DHT22;9271;48.590;8.866;2024-03-02T07:27:07;6.00;99.90
18291;DHT22;9271;48.590;8.866;2024-03-02T07:29:36;6.10;99.90
18291;DHT22;9271;48.590;8.866;2024-03-02T07:32:03;6.20;99.90
18291;DHT22;9271;48.590;8.866;2024-03-02T07:34:29;6.30;99.90
18291;DHT22;9271;48.590;8.866;2024-03-02T07:36:56;6.40;99.90
18291;DHT22;9271;48.590;8.866;2024-03-02T07:39:23;6.60;99.90
18291;DHT22;9271;48.590;8.866;2024-03-02T07:41:50;7.40;99.90
18291;DHT22;9271;48.590;8.866;2024-03-02T07:44:17;8.60;99.90
18291;DHT22;9271;48.590;8.866;2024-03-02T07:46:46;10.00;99.90
18291;DHT22;9271;48.590;8.866;2024-03-02T07:49:15;11.40;99.90
18291;DHT22;9271;48.590;8.866;2024-03-02T07:51:42;13.40;99.90
18291;DHT22;9271;48.590;8.866;2024-03-02T07:54:08;14.80;97.70
18291;DHT22;9271;48.590;8.866;2024-03-02T07:56:35;16.30;94.90
18291;DHT22;9271;48.590;8.866;2024-03-02T07:59:03;17.20;91.40
18291;DHT22;9271;48.590;8.866;2024-03-02T08:01:31;18.40;90.80
18291;DHT22;9271;48.590;8.866;2024-03-02T08:04:00;19.40;85.50
18291;DHT22;9271;48.590;8.866;2024-03-02T08:06:29;20.80;79.80
18291;DHT22;9271;48.590;8.866;2024-03-02T08:08:56;22.00;73.70
18291;DHT22;9271;48.590;8.866;2024-03-02T08:11:23;22.90;68.90
18291;DHT22;9271;48.590;8.866;2024-03-02T08:13:50;23.10;64.60
18291;DHT22;9271;48.590;8.866;2024-03-02T08:16:17;22.70;64.40
18291;DHT22;9271;48.590;8.866;2024-03-02T08:18:45;23.10;62.30
18291;DHT22;9271;48.590;8.866;2024-03-02T08:21:13;22.90;59.60
18291;DHT22;9271;48.590;8.866;2024-03-02T08:23:41;22.60;59.80
18291;DHT22;9271;48.590;8.866;2024-03-02T08:26:08;23.40;60.30
18291;DHT22;9271;48.590;8.866;2024-03-02T08:28:35;23.40;58.50
18291;DHT22;9271;48.590;8.866;2024-03-02T08:31:03;23.90;57.30
18291;DHT22;9271;48.590;8.866;2024-03-02T08:33:29;24.80;56.50
18291;DHT22;9271;48.590;8.866;2024-03-02T08:35:55;25.80;55.00
18291;DHT22;9271;48.590;8.866;2024-03-02T08:38:23;26.10;51.90
18291;DHT22;9271;48.590;8.866;2024-03-02T08:40:50;26.50;51.60
18291;DHT22;9271;48.590;8.866;2024-03-02T08:43:17;26.90;50.90
18291;DHT22;9271;48.590;8.866;2024-03-02T08:45:45;27.40;49.70
18291;DHT22;9271;48.590;8.866;2024-03-02T08:48:12;27.30;49.80
18291;DHT22;9271;48.590;8.866;2024-03-02T08:50:39;27.70;47.50
18291;DHT22;9271;48.590;8.866;2024-03-02T08:53:06;27.80;47.10
18291;DHT22;9271;48.590;8.866;2024-03-02T08:55:34;28.10;46.20
18291;DHT22;9271;48.590;8.866;2024-03-02T08:58:00;27.80;46.60
18291;DHT22;9271;48.590;8.866;2024-03-02T09:00:27;28.80;44.50
18291;DHT22;9271;48.590;8.866;2024-03-02T09:02:54;28.90;44.60
18291;DHT22;9271;48.590;8.866;2024-03-02T09:05:21;27.80;44.70
18291;DHT22;9271;48.590;8.866;2024-03-02T09:07:47;27.70;44.50
18291;DHT22;9271;48.590;8.866;2024-03-02T09:10:14;27.60;44.50
18291;DHT22;9271;48.590;8.866;2024-03-02T09:12:43;27.40;45.20
18291;DHT22;9271;48.590;8.866;2024-03-02T09:15:09;25.90;46.00
18291;DHT22;9271;48.590;8.866;2024-03-02T09:17:36;26.30;45.60
18291;DHT22;9271;48.590;8.866;2024-03-02T09:20:03;25.90;46.70
18291;DHT22;9271;48.590;8.866;2024-03-02T09:22:30;26.50;45.80
18291;DHT22;9271;48.590;8.866;2024-03-02T09:24:57;26.30;45.80
18291;DHT22;9271;48.590;8.866;2024-03-02T09:27:24;26.80;44.70
18291;DHT22;9271;48.590;8.866;2024-03-02T09:29:52;26.90;45.60
18291;DHT22;9271;48.590;8.866;2024-03-02T09:32:19;27.40;44.20
18291;DHT22;9271;48.590;8.866;2024-03-02T09:34:46;27.70;45.10
18291;DHT22;9271;48.590;8.866;2024-03-02T09:37:13;29.10;42.60
18291;DHT22;9271;48.590;8.866;2024-03-02T09:39:40;29.60;40.30
18291;DHT22;9271;48.590;8.866;2024-03-02T09:42:09;29.60;39.80
18291;DHT22;9271;48.590;8.866;2024-03-02T09:44:36;29.80;39.00
18291;DHT22;9271;48.590;8.866;2024-03-02T09:47:06;30.20;39.80
18291;DHT22;9271;48.590;8.866;2024-03-02T09:49:33;29.80;38.90
18291;DHT22;9271;48.590;8.866;2024-03-02T09:51:59;29.40;39.30
18291;DHT22;9271;48.590;8.866;2024-03-02T09:54:27;30.10;39.50
18291;DHT22;9271;48.590;8.866;2024-03-02T09:56:54;28.90;38.60
18291;DHT22;9271;48.590;8.866;2024-03-02T09:59:20;28.70;40.10
18291;DHT22;9271;48.590;8.866;2024-03-02T10:01:57;29.20;40.40
18291;DHT22;9271;48.590;8.866;2024-03-02T10:04:28;28.60;39.20
18291;DHT22;9271;48.590;8.866;2024-03-02T10:07:11;28.40;42.00
18291;DHT22;9271;48.590;8.866;2024-03-02T10:09:38;28.20;39.70
18291;DHT22;9271;48.590;8.866;2024-03-02T10:12:06;29.60;39.60
18291;DHT22;9271;48.590;8.866;2024-03-02T10:14:33;29.90;37.20
18291;DHT22;9271;48.590;8.866;2024-03-02T10:17:04;30.20;37.10
18291;DHT22;9271;48.590;8.866;2024-03-02T10:19:32;29.90;39.00
18291;DHT22;9271;48.590;8.866;2024-03-02T10:22:01;29.80;37.50
18291;DHT22;9271;48.590;8.866;2024-03-02T10:24:35;29.00;39.10
18291;DHT22;9271;48.590;8.866;2024-03-02T10:27:07;29.80;38.30
18291;DHT22;9271;48.590;8.866;2024-03-02T10:29:36;31.00;36.70
18291;DHT22;9271;48.590;8.866;2024-03-02T10:32:04;31.50;35.60
18291;DHT22;9271;48.590;8.866;2024-03-02T10:34:33;31.70;35.00
18291;DHT22;9271;48.590;8.866;2024-03-02T10:37:00;31.40;36.40
18291;DHT22;9271;48.590;8.866;2024-03-02T10:39:28;32.00;35.20
18291;DHT22;9271;48.590;8.866;2024-03-02T10:41:55;32.50;33.70
18291;DHT22;9271;48.590;8.866;2024-03-02T10:44:23;32.90;32.80
18291;DHT22;9271;48.590;8.866;2024-03-02T10:46:50;33.50;32.70
18291;DHT22;9271;48.590;8.866;2024-03-02T10:49:19;33.50;31.30
18291;DHT22;9271;48.590;8.866;2024-03-02T10:51:48;32.30;32.60
18291;DHT22;9271;48.590;8.866;2024-03-02T10:54:15;32.20;32.10
18291;DHT22;9271;48.590;8.866;2024-03-02T10:56:44;32.40;32.50
18291;DHT22;9271;48.590;8.866;2024-03-02T10:59:17;32.80;32.90
18291;DHT22;9271;48.590;8.866;2024-03-02T11:01:48;34.10;30.70
18291;DHT22;9271;48.590;8.866;2024-03-02T11:04:16;32.00;32.00
18291;DHT22;9271;48.590;8.866;2024-03-02T11:06:49;33.20;31.80
18291;DHT22;9271;48.590;8.866;2024-03-02T11:09:20;33.70;30.00
18291;DHT22;9271;48.590;8.866;2024-03-02T11:11:52;33.50;30.60
18291;DHT22;9271;48.590;8.866;2024-03-02T11:14:24;35.20;29.70
18291;DHT22;9271;48.590;8.866;2024-03-02T11:16:51;35.40;28.40
18291;DHT22;9271;48.590;8.866;2024-03-02T11:19:19;35.10;28.90
18291;DHT22;9271;48.590;8.866;2024-03-02T11:21:46;34.80;27.60
18291;DHT22;9271;48.590;8.866;2024-03-02T11:24:33;32.70;29.40
18291;DHT22;9271;48.590;8.866;2024-03-02T11:27:01;31.80;30.90
18291;DHT22;9271;48.590;8.866;2024-03-02T11:29:44;32.40;31.30
18291;DHT22;9271;48.590;8.866;2024-03-02T11:32:15;32.40;30.60
18291;DHT22;9271;48.590;8.866;2024-03-02T11:34:43;31.60;32.30
18291;DHT22;9271;48.590;8.866;2024-03-02T11:37:12;32.30;31.10
18291;DHT22;9271;48.590;8.866;2024-03-02T11:39:40;33.40;30.50
18291;DHT22;9271;48.590;8.866;2024-03-02T11:42:07;34.60;29.40
18291;DHT22;9271;48.590;8.866;2024-03-02T11:44:35;35.30;28.60
18291;DHT22;9271;48.590;8.866;2024-03-02T11:47:05;35.10;27.80
18291;DHT22;9271;48.590;8.866;2024-03-02T11:49:37;35.60;27.50
18291;DHT22;9271;48.590;8.866;2024-03-02T11:52:05;36.60;28.10
18291;DHT22;9271;48.590;8.866;2024-03-02T11:54:32;37.10;27.30
18291;DHT22;9271;48.590;8.866;2024-03-02T11:57:01;35.50;27.30
18291;DHT22;9271;48.590;8.866;2024-03-02T11:59:29;35.70;27.60
18291;DHT22;9271;48.590;8.866;2024-03-02T12:01:56;36.40;27.50
18291;DHT22;9271;48.590;8.866;2024-03-02T12:04:23;37.20;26.10
18291;DHT22;9271;48.590;8.866;2024-03-02T12:06:54;38.10;25.50
18291;DHT22;9271;48.590;8.866;2024-03-02T12:09:21;35.60;25.30
18291;DHT22;9271;48.590;8.866;2024-03-02T12:11:48;34.20;27.40
18291;DHT22;9271;48.590;8.866;2024-03-02T12:14:16;33.90;26.20
18291;DHT22;9271;48.590;8.866;2024-03-02T12:16:43;33.90;26.40
18291;DHT22;9271;48.590;8.866;2024-03-02T12:19:10;35.20;26.30
18291;DHT22;9271;48.590;8.866;2024-03-02T12:21:38;35.40;26.00
18291;DHT22;9271;48.590;8.866;2024-03-02T12:24:04;34.80;26.40
18291;DHT22;9271;48.590;8.866;2024-03-02T12:26:31;34.80;25.60
18291;DHT22;9271;48.590;8.866;2024-03-02T12:28:58;34.00;26.20
18291;DHT22;9271;48.590;8.866;2024-03-02T12:31:26;32.20;26.80
18291;DHT22;9271;48.590;8.866;2024-03-02T12:33:53;30.20;29.60
18291;DHT22;9271;48.590;8.866;2024-03-02T12:36:20;29.70;30.50
18291;DHT22;9271;48.590;8.866;2024-03-02T12:38:47;29.50;29.70
18291;DHT22;9271;48.590;8.866;2024-03-02T12:41:14;29.00;31.50
18291;DHT22;9271;48.590;8.866;2024-03-02T12:43:41;29.00;30.00
18291;DHT22;9271;48.590;8.866;2024-03-02T12:46:08;29.70;30.40
18291;DHT22;9271;48.590;8.866;2024-03-02T12:48:36;30.40;30.60
18291;DHT22;9271;48.590;8.866;2024-03-02T12:51:06;28.90;30.60
18291;DHT22;9271;48.590;8.866;2024-03-02T12:53:33;28.90;31.10
18291;DHT22;9271;48.590;8.866;2024-03-02T12:55:59;26.60;33.30
18291;DHT22;9271;48.590;8.866;2024-03-02T12:58:26;26.30;33.80
18291;DHT22;9271;48.590;8.866;2024-03-02T13:01:05;24.60;35.40
18291;DHT22;9271;48.590;8.866;2024-03-02T13:03:36;23.60;37.40
18291;DHT22;9271;48.590;8.866;2024-03-02T13:06:04;23.70;37.80
18291;DHT22;9271;48.590;8.866;2024-03-02T13:08:30;23.50;38.00
18291;DHT22;9271;48.590;8.866;2024-03-02T13:10:57;23.00;38.70
18291;DHT22;9271;48.590;8.866;2024-03-02T13:13:24;22.70;41.50
18291;DHT22;9271;48.590;8.866;2024-03-02T13:15:55;22.70;41.10
18291;DHT22;9271;48.590;8.866;2024-03-02T13:18:21;23.50;40.30
18291;DHT22;9271;48.590;8.866;2024-03-02T13:20:50;24.00;39.20
18291;DHT22;9271;48.590;8.866;2024-03-02T13:23:16;24.30;38.90
18291;DHT22;9271;48.590;8.866;2024-03-02T13:25:43;23.40;38.80
18291;DHT22;9271;48.590;8.866;2024-03-02T13:28:12;23.10;38.80
18291;DHT22;9271;48.590;8.866;2024-03-02T13:30:39;23.10;39.50
18291;DHT22;9271;48.590;8.866;2024-03-02T13:33:06;24.40;38.70
18291;DHT22;9271;48.590;8.866;2024-03-02T13:35:33;25.50;37.10
18291;DHT22;9271;48.590;8.866;2024-03-02T13:38:01;25.70;36.60
18291;DHT22;9271;48.590;8.866;2024-03-02T13:40:27;28.10;34.10
18291;DHT22;9271;48.590;8.866;2024-03-02T13:42:55;30.80;31.10
18291;DHT22;9271;48.590;8.866;2024-03-02T13:45:22;32.40;29.90
18291;DHT22;9271;48.590;8.866;2024-03-02T13:47:49;32.40;28.50
18291;DHT22;9271;48.590;8.866;2024-03-02T13:50:15;28.80;31.10
18291;DHT22;9271;48.590;8.866;2024-03-02T13:52:42;28.30;32.40
18291;DHT22;9271;48.590;8.866;2024-03-02T13:55:10;28.80;31.10
18291;DHT22;9271;48.590;8.866;2024-03-02T13:57:37;29.80;31.30
18291;DHT22;9271;48.590;8.866;2024-03-02T14:00:05;31.10;29.60
18291;DHT22;9271;48.590;8.866;2024-03-02T14:02:35;31.50;29.30
18291;DHT22;9271;48.590;8.866;2024-03-02T14:05:03;31.40;29.70
18291;DHT22;9271;48.590;8.866;2024-03-02T14:07:29;33.00;28.40
18291;DHT22;9271;48.590;8.866;2024-03-02T14:09:56;32.80;28.20
18291;DHT22;9271;48.590;8.866;2024-03-02T14:12:24;33.00;28.90
18291;DHT22;9271;48.590;8.866;2024-03-02T14:14:51;32.90;27.70
18291;DHT22;9271;48.590;8.866;2024-03-02T14:17:20;32.20;28.00
18291;DHT22;9271;48.590;8.866;2024-03-02T14:19:47;31.90;28.60
18291;DHT22;9271;48.590;8.866;2024-03-02T14:22:14;31.80;28.50
18291;DHT22;9271;48.590;8.866;2024-03-02T14:24:43;32.00;28.70
18291;DHT22;9271;48.590;8.866;2024-03-02T14:27:09;31.30;28.40
18291;DHT22;9271;48.590;8.866;2024-03-02T14:29:38;31.90;29.30
18291;DHT22;9271;48.590;8.866;2024-03-02T14:32:06;32.60;28.00
18291;DHT22;9271;48.590;8.866;2024-03-02T14:34:32;32.90;28.00
18291;DHT22;9271;48.590;8.866;2024-03-02T14:36:59;31.80;28.30
18291;DHT22;9271;48.590;8.866;2024-03-02T14:39:26;31.00;29.40
18291;DHT22;9271;48.590;8.866;2024-03-02T14:41:53;30.40;30.70
18291;DHT22;9271;48.590;8.866;2024-03-02T14:44:20;30.50;30.20
18291;DHT22;9271;48.590;8.866;2024-03-02T14:46:48;31.20;29.60
18291;DHT22;9271;48.590;8.866;2024-03-02T14:49:16;32.70;28.80
18291;DHT22;9271;48.590;8.866;2024-03-02T14:51:43;33.20;28.00
18291;DHT22;9271;48.590;8.866;2024-03-02T14:54:10;31.10;29.50
18291;DHT22;9271;48.590;8.866;2024-03-02T14:56:37;29.70;30.50
18291;DHT22;9271;48.590;8.866;2024-03-02T14:59:03;28.10;32.40
18291;DHT22;9271;48.590;8.866;2024-03-02T15:01:30;26.30;34.80
18291;DHT22;9271;48.590;8.866;2024-03-02T15:03:58;25.20;36.30
18291;DHT22;9271;48.590;8.866;2024-03-02T15:06:25;24.10;37.80
18291;DHT22;9271;48.590;8.866;2024-03-02T15:08:51;22.90;39.30
18291;DHT22;9271;48.590;8.866;2024-03-02T15:11:20;22.20;41.10
18291;DHT22;9271;48.590;8.866;2024-03-02T15:13:47;21.60;41.90
18291;DHT22;9271;48.590;8.866;2024-03-02T15:16:14;21.40;42.50
18291;DHT22;9271;48.590;8.866;2024-03-02T15:18:40;21.40;42.60
18291;DHT22;9271;48.590;8.866;2024-03-02T15:21:08;21.20;43.30
18291;DHT22;9271;48.590;8.866;2024-03-02T15:23:35;21.10;43.20
18291;DHT22;9271;48.590;8.866;2024-03-02T15:26:02;20.90;44.10
18291;DHT22;9271;48.590;8.866;2024-03-02T15:28:29;20.60;45.10
18291;DHT22;9271;48.590;8.866;2024-03-02T15:30:55;20.60;45.00
18291;DHT22;9271;48.590;8.866;2024-03-02T15:33:22;20.60;44.20
18291;DHT22;9271;48.590;8.866;2024-03-02T15:35:50;20.20;43.80
18291;DHT22;9271;48.590;8.866;2024-03-02T15:38:18;20.00;44.30
18291;DHT22;9271;48.590;8.866;2024-03-02T15:40:45;19.50;44.90
18291;DHT22;9271;48.590;8.866;2024-03-02T15:43:12;19.10;45.60
18291;DHT22;9271;48.590;8.866;2024-03-02T15:45:38;18.80;46.80
18291;DHT22;9271;48.590;8.866;2024-03-02T15:48:05;18.80;47.50
18291;DHT22;9271;48.590;8.866;2024-03-02T15:50:32;18.60;47.50
18291;DHT22;9271;48.590;8.866;2024-03-02T15:53:01;18.70;46.40
18291;DHT22;9271;48.590;8.866;2024-03-02T15:55:31;18.70;46.00
18291;DHT22;9271;48.590;8.866;2024-03-02T15:57:57;18.50;46.90